Airfield :
LOGIN :

Register | Disclaimer

   EN    FR    IT 

 










Legend :    VFR   Marginal VFR   IFR   Intensive IFR   Very Intensive IFR
Visi :
Ceiling :
>= 8 km
>= 3000ft
5 to 8 km
1000 to 3000 ft
1500m to 5 km
500 to 1000 ft
800 to 1500m
200 to 500 ft
< 800m
< 200 ft
Symbols :   Thunderstorms  Fog  Heavy snow  Heavy precipitations  Wind > 20 kt
SIGMETs :     Misc.  Thunderstorms  Icing  Turbulence  Mountain Waves  Volcanic Ashes







- Airport Elevation : 1367 ft
- IATA code : FDH


EDNY - Friedrichshafen

CURRENT METAR :
  • 141820Z 18007KT 9999 -RA SCT014 BKN024 OVC028 04/02 Q1000

EXPIRED METARs :
  • 141750Z 21008KT 9999 -RA SCT014 BKN034 OVC043 03/02 Q1000 RERA
  • 141720Z 21011KT 190V250 9000 RA SCT015 BKN017 OVC021 04/02 Q1000
  • 141650Z 20008KT 9999 -RA SCT017 OVC025 05/01 Q1001
  • 141620Z 22012KT 9999 OVC042 05/00 Q1001
  • 141550Z 21013KT 9999 FEW030 BKN037 OVC046 05/01 Q1002

TAF TAF EDNY
Valid from the 14 at 18:00 until the 15 at 18:00 UTC


141700Z 1418/1518 23010KT 9999 BKN020
TEMPO 1418/1502 4000 RASN BKN008
BECMG 1501/1503 24015G25KT
PROB30
TEMPO 1502/1505 25025G40KT 2000 SHSNGS BKN007CB
BECMG 1507/1509 24009KT
TEMPO 1510/1514 24015G25KT
No reported NOTAMs for that airfield.



MET'MAP, your aeronautical weather chart ! - Copyright ORBIFLY December 2007 - Disclaimer

ORBIFLY MET'MAP TEAM :

Programming & Development : Alexandra Zaïnal
Concept & Development : Baudouin d'Aumeries
Co-Development & Prog : Marc-Olivier Méhu
Technical & hardware support : Manuel Goepfert

Contact : metmap@orbifly.com




SOURCES & CREDITS :

   NOAA